createdAt,value
2019-03-20T00:02:09.642Z,15.45
2019-03-20T00:04:49.766Z,13.18
2019-03-20T00:07:15.807Z,14.10
2019-03-20T00:09:47.834Z,12.50
2019-03-20T00:12:19.863Z,13.13
2019-03-20T00:14:51.831Z,13.55
2019-03-20T00:20:13.197Z,14.23
2019-03-20T00:22:45.363Z,15.15
2019-03-20T00:25:17.324Z,15.15
2019-03-20T00:27:50.499Z,15.68
2019-03-20T00:30:22.965Z,17.12
2019-03-20T00:32:55.085Z,15.25
2019-03-20T00:35:27.474Z,15.43
2019-03-20T00:37:59.492Z,14.00
2019-03-20T00:40:31.465Z,14.18
2019-03-20T00:43:03.487Z,14.45
2019-03-20T00:45:36.601Z,15.13
2019-03-20T00:48:09.650Z,14.47
2019-03-20T00:50:41.678Z,14.98
2019-03-20T00:53:14.020Z,15.65
2019-03-20T00:55:46.573Z,16.02
2019-03-20T00:58:18.546Z,15.70
2019-03-20T01:00:50.695Z,15.38
2019-03-20T01:03:22.684Z,15.85
2019-03-20T01:05:54.681Z,15.48
2019-03-20T01:08:27.120Z,16.05
2019-03-20T01:10:59.127Z,13.88
2019-03-20T01:13:31.138Z,14.38
2019-03-20T01:16:03.185Z,14.35
2019-03-20T01:18:35.218Z,14.45
2019-03-20T01:21:08.087Z,14.68
2019-03-20T01:23:40.149Z,13.98
2019-03-20T01:26:12.174Z,14.75
2019-03-20T01:28:44.134Z,15.72
2019-03-20T01:31:16.168Z,15.32
2019-03-20T01:33:48.142Z,15.25
2019-03-20T01:36:20.149Z,15.30
2019-03-20T01:38:52.178Z,14.75
2019-03-20T01:41:24.175Z,16.17
2019-03-20T01:43:56.147Z,15.50
2019-03-20T01:46:28.183Z,15.50
2019-03-20T01:49:00.252Z,14.60
2019-03-20T01:51:34.939Z,14.63
2019-03-20T01:54:06.931Z,14.83
2019-03-20T01:56:39.076Z,15.75
2019-03-20T01:59:12.034Z,14.83
2019-03-20T02:01:44.196Z,15.83
2019-03-20T02:04:16.234Z,16.02
2019-03-20T02:06:48.352Z,15.18
2019-03-20T02:09:21.330Z,15.28
2019-03-20T02:11:53.761Z,17.17
2019-03-20T02:14:26.195Z,16.60
2019-03-20T02:16:58.166Z,16.00
2019-03-20T02:19:30.202Z,15.38
2019-03-20T02:22:02.212Z,15.38
2019-03-20T02:24:34.189Z,15.08
2019-03-20T02:27:06.324Z,17.30
2019-03-20T02:29:38.367Z,16.62
2019-03-20T02:32:10.350Z,15.55
2019-03-20T02:34:42.380Z,15.40
2019-03-20T02:37:14.444Z,15.23
2019-03-20T02:39:46.475Z,14.55
2019-03-20T02:42:18.443Z,14.78
2019-03-20T02:44:50.466Z,14.85
2019-03-20T02:47:22.451Z,14.75
2019-03-20T02:49:54.590Z,13.95
2019-03-20T02:52:26.599Z,14.90
2019-03-20T02:54:58.620Z,14.80
2019-03-20T02:57:30.848Z,14.35
2019-03-20T03:00:03.051Z,14.43
2019-03-20T03:02:36.585Z,13.32
2019-03-20T03:05:09.511Z,12.82
2019-03-20T03:07:42.696Z,12.73
2019-03-20T03:10:15.618Z,10.38
2019-03-20T03:12:47.672Z,10.75
2019-03-20T03:15:19.682Z,10.65
2019-03-20T03:17:52.157Z,11.88
2019-03-20T03:20:24.168Z,12.60
2019-03-20T03:22:56.580Z,11.35
2019-03-20T03:25:28.937Z,12.25
2019-03-20T03:28:01.299Z,12.25
2019-03-20T03:30:33.354Z,10.78
2019-03-20T03:33:05.572Z,10.08
2019-03-20T03:35:38.033Z,8.78
2019-03-20T03:38:09.973Z,9.68
2019-03-20T03:40:42.794Z,9.13
2019-03-20T03:43:14.757Z,9.30
2019-03-20T03:45:47.058Z,8.78
2019-03-20T03:48:19.033Z,6.33
2019-03-20T03:50:51.158Z,5.58
2019-03-20T03:53:23.147Z,4.80
2019-03-20T03:55:55.150Z,4.78
2019-03-20T03:58:27.151Z,6.65
2019-03-20T04:00:59.190Z,6.37
2019-03-20T04:03:31.129Z,5.85
2019-03-20T04:06:03.304Z,5.20
2019-03-20T04:08:35.412Z,5.12
2019-03-20T04:11:07.460Z,4.08
2019-03-20T04:13:39.890Z,4.80
2019-03-20T04:16:11.902Z,4.97
2019-03-20T04:18:43.959Z,5.10
2019-03-20T04:21:15.922Z,5.55
2019-03-20T04:23:47.934Z,5.00
2019-03-20T04:26:19.942Z,6.45
2019-03-20T04:28:52.360Z,5.92
2019-03-20T04:31:24.346Z,5.50
2019-03-20T04:33:57.767Z,6.10
2019-03-20T04:36:29.944Z,5.25
2019-03-20T04:39:04.181Z,5.85
2019-03-20T04:41:36.156Z,5.40
2019-03-20T04:44:09.260Z,5.00
2019-03-20T04:46:41.222Z,5.58
2019-03-20T04:49:13.636Z,6.12
2019-03-20T04:51:45.637Z,6.80
2019-03-20T04:54:17.650Z,5.97
2019-03-20T04:56:49.616Z,3.70
2019-03-20T04:59:21.647Z,3.40
2019-03-20T05:01:53.627Z,4.90
2019-03-20T05:04:25.716Z,3.98
2019-03-20T05:06:59.197Z,4.50
2019-03-20T05:09:32.139Z,3.80
2019-03-20T05:12:05.442Z,3.05
2019-03-20T05:14:37.396Z,2.62
2019-03-20T05:17:09.756Z,2.77
2019-03-20T05:19:41.797Z,2.52
2019-03-20T05:22:13.796Z,2.87
2019-03-20T05:24:45.885Z,2.75
2019-03-20T05:27:17.886Z,2.85
2019-03-20T05:29:50.272Z,2.67
2019-03-20T05:32:22.229Z,2.87
2019-03-20T05:34:54.245Z,2.60
2019-03-20T05:37:26.222Z,2.27
2019-03-20T05:39:58.217Z,2.02
2019-03-20T05:42:30.188Z,1.52
2019-03-20T05:45:04.022Z,1.00
2019-03-20T05:47:35.989Z,1.20
2019-03-20T05:50:09.013Z,1.50
2019-03-20T05:52:41.421Z,1.80
2019-03-20T05:55:13.939Z,1.40
2019-03-20T05:57:46.025Z,1.20
2019-03-20T06:00:18.579Z,1.85
2019-03-20T06:02:50.671Z,1.65
2019-03-20T06:05:22.627Z,1.30
2019-03-20T06:07:54.635Z,1.37
2019-03-20T06:10:26.602Z,1.57
2019-03-20T06:12:58.619Z,1.70
2019-03-20T06:15:30.574Z,1.62
2019-03-20T06:18:03.305Z,1.82
2019-03-20T06:20:35.301Z,1.70
2019-03-20T06:23:07.308Z,1.47
2019-03-20T06:25:39.272Z,2.30
2019-03-20T06:28:11.262Z,1.95
2019-03-20T06:30:43.233Z,1.90
2019-03-20T06:33:15.322Z,1.85
2019-03-20T06:35:47.317Z,1.80
2019-03-20T06:38:19.321Z,1.77
2019-03-20T06:40:51.597Z,1.57
2019-03-20T06:43:23.666Z,1.25
2019-03-20T06:45:55.678Z,1.65
2019-03-20T06:48:27.725Z,1.30
2019-03-20T06:50:59.723Z,1.45
2019-03-20T06:53:32.051Z,1.87
2019-03-20T06:56:06.137Z,1.80
2019-03-20T06:58:38.142Z,1.42
2019-03-20T07:01:14.833Z,1.45
2019-03-20T07:04:05.686Z,1.20
2019-03-20T07:06:48.056Z,1.17
2019-03-20T07:09:50.140Z,1.30
2019-03-20T07:12:22.159Z,0.90
2019-03-20T07:14:54.120Z,1.17
2019-03-20T07:17:26.104Z,0.80
2019-03-20T07:19:58.103Z,0.80
2019-03-20T07:22:30.099Z,0.80
2019-03-20T07:25:02.110Z,0.80
2019-03-20T07:27:34.115Z,0.90
2019-03-20T07:30:07.277Z,0.82
2019-03-20T07:32:39.574Z,1.00
2019-03-20T07:35:12.097Z,0.90
2019-03-20T07:37:55.311Z,0.70
2019-03-20T07:40:18.330Z,0.70
2019-03-20T07:42:50.725Z,0.98
2019-03-20T07:45:22.736Z,0.90
2019-03-20T07:47:57.820Z,0.95
2019-03-20T07:50:29.835Z,1.20
2019-03-20T07:53:04.099Z,1.30
2019-03-20T07:55:36.166Z,1.10
2019-03-20T07:58:08.139Z,1.00
2019-03-20T08:00:40.259Z,1.07
2019-03-20T08:03:12.212Z,1.25
2019-03-20T08:05:44.379Z,0.65
2019-03-20T08:08:16.365Z,0.62
2019-03-20T08:10:48.366Z,0.82
2019-03-20T08:13:20.362Z,0.88
2019-03-20T08:15:52.335Z,0.60
2019-03-20T08:18:24.338Z,0.60
2019-03-20T08:20:56.367Z,0.60
2019-03-20T08:23:28.405Z,0.60
2019-03-20T08:26:00.392Z,0.50
2019-03-20T08:28:32.441Z,0.65
2019-03-20T08:31:04.836Z,0.50
2019-03-20T08:33:36.831Z,0.60
2019-03-20T08:36:08.858Z,0.50
2019-03-20T08:38:40.935Z,0.50
2019-03-20T08:41:13.296Z,0.37
2019-03-20T08:43:45.733Z,0.30
2019-03-20T08:46:18.084Z,0.40
2019-03-20T08:48:50.062Z,0.40
2019-03-20T08:51:22.115Z,0.60
2019-03-20T08:53:56.254Z,0.50
2019-03-20T08:56:28.185Z,0.60
2019-03-20T08:59:00.219Z,0.55
2019-03-20T09:01:32.192Z,0.42
2019-03-20T09:04:04.462Z,0.70
2019-03-20T09:06:36.751Z,0.70
2019-03-20T09:09:09.771Z,0.78
2019-03-20T09:11:41.759Z,0.80
2019-03-20T09:14:14.240Z,1.17
2019-03-20T09:16:46.623Z,1.60
2019-03-20T09:19:18.646Z,0.82
2019-03-20T09:21:50.656Z,0.53
2019-03-20T09:24:22.637Z,0.90
2019-03-20T09:26:54.639Z,1.32
2019-03-20T09:29:35.693Z,0.95
2019-03-20T09:32:00.911Z,1.00
2019-03-20T09:34:33.099Z,0.70
2019-03-20T09:37:05.789Z,0.60
2019-03-20T09:39:37.800Z,1.17
2019-03-20T09:42:09.783Z,0.70
2019-03-20T09:44:41.891Z,0.50
2019-03-20T09:47:13.867Z,0.50
2019-03-20T09:49:45.881Z,0.80
2019-03-20T09:52:17.865Z,0.80
2019-03-20T09:54:49.898Z,0.90
2019-03-20T09:57:21.906Z,0.85
2019-03-20T09:59:53.891Z,0.90
2019-03-20T10:02:25.907Z,0.68
2019-03-20T10:04:58.171Z,0.50
2019-03-20T10:07:31.186Z,0.75
2019-03-20T10:10:03.170Z,0.62
2019-03-20T10:12:35.980Z,2.08
2019-03-20T10:15:10.577Z,1.10
2019-03-20T10:17:42.581Z,1.37
2019-03-20T10:20:16.340Z,2.00
2019-03-20T10:22:49.560Z,0.90
2019-03-20T10:25:21.586Z,0.60
2019-03-20T10:27:53.648Z,1.20
2019-03-20T10:30:26.368Z,1.20
2019-03-20T10:32:58.439Z,0.70
2019-03-20T10:35:30.463Z,0.80
2019-03-20T10:38:02.436Z,0.70
2019-03-20T10:40:34.492Z,1.37
2019-03-20T10:43:06.549Z,0.65
2019-03-20T10:45:38.596Z,0.80
2019-03-20T10:48:10.535Z,0.72
2019-03-20T10:50:42.558Z,0.80
2019-03-20T10:53:14.544Z,0.72
2019-03-20T10:55:46.661Z,0.80
2019-03-20T10:58:18.684Z,0.88
2019-03-20T11:00:50.664Z,0.80
2019-03-20T11:03:22.777Z,0.62
2019-03-20T11:05:54.729Z,1.07
2019-03-20T11:08:27.936Z,0.72
2019-03-20T11:10:59.936Z,1.10
2019-03-20T11:13:31.900Z,0.70
2019-03-20T11:16:04.945Z,0.68
2019-03-20T11:18:37.023Z,0.60
2019-03-20T11:21:09.032Z,0.80
2019-03-20T11:23:40.983Z,0.68
2019-03-20T11:26:13.028Z,0.68
2019-03-20T11:28:45.018Z,0.60
2019-03-20T11:31:17.027Z,0.60
2019-03-20T11:33:49.154Z,0.53
2019-03-20T11:36:21.161Z,0.60
2019-03-20T11:38:53.210Z,1.02
2019-03-20T11:41:25.210Z,0.70
2019-03-20T11:43:57.535Z,0.70
2019-03-20T11:46:29.564Z,1.00
2019-03-20T11:49:01.536Z,0.70
2019-03-20T11:51:33.743Z,0.80
2019-03-20T11:54:07.180Z,0.53
2019-03-20T11:56:39.222Z,0.70
2019-03-20T11:59:11.200Z,1.10
2019-03-20T12:01:43.314Z,0.80
2019-03-20T12:04:15.370Z,0.60
2019-03-20T12:06:47.418Z,0.90
2019-03-20T12:09:19.442Z,0.50
2019-03-20T12:11:51.490Z,0.50
2019-03-20T12:14:23.503Z,0.60
2019-03-20T12:16:55.477Z,0.60
2019-03-20T12:19:27.522Z,0.70
2019-03-20T12:21:59.594Z,0.70
2019-03-20T12:24:31.662Z,0.55
2019-03-20T12:27:14.540Z,0.60
2019-03-20T12:29:37.400Z,0.50
2019-03-20T12:32:09.397Z,0.50
2019-03-20T12:34:41.375Z,0.50
2019-03-20T12:37:13.621Z,0.80
2019-03-20T12:39:53.106Z,0.70
2019-03-20T12:42:19.349Z,1.17
2019-03-20T12:44:51.361Z,1.22
2019-03-20T12:47:23.393Z,1.20
2019-03-20T12:49:55.376Z,0.70
2019-03-20T12:52:27.481Z,0.70
2019-03-20T12:54:59.448Z,0.88
2019-03-20T12:57:31.450Z,0.80
2019-03-20T13:00:03.446Z,0.90
2019-03-20T13:02:38.423Z,0.60
2019-03-20T13:05:10.792Z,0.78
2019-03-20T13:07:42.786Z,1.50
2019-03-20T13:10:16.608Z,0.80
2019-03-20T13:12:48.977Z,1.10
2019-03-20T13:15:22.286Z,0.70
2019-03-20T13:17:55.134Z,0.55
2019-03-20T13:20:27.926Z,0.70
2019-03-20T13:23:03.588Z,0.72
2019-03-20T13:25:35.848Z,0.80
2019-03-20T13:28:13.876Z,0.78
2019-03-20T13:30:50.124Z,0.62
2019-03-20T13:33:25.970Z,0.80
2019-03-20T13:35:55.793Z,0.70
2019-03-20T13:38:27.804Z,0.65
2019-03-20T13:40:59.779Z,1.00
2019-03-20T13:43:31.782Z,0.60
2019-03-20T13:46:03.828Z,0.70
2019-03-20T13:48:37.427Z,0.62
2019-03-20T13:51:09.429Z,0.70
2019-03-20T13:53:41.434Z,0.60
2019-03-20T13:56:13.534Z,0.80
2019-03-20T13:58:45.566Z,0.90
2019-03-20T14:01:17.969Z,0.85
2019-03-20T14:03:49.939Z,0.60
2019-03-20T14:06:21.953Z,0.60
2019-03-20T14:08:54.221Z,0.70
2019-03-20T14:11:26.256Z,0.55
2019-03-20T14:13:58.223Z,0.70
2019-03-20T14:16:30.232Z,0.70
2019-03-20T14:19:02.196Z,0.70
2019-03-20T14:21:34.205Z,0.60
2019-03-20T14:24:06.968Z,0.60
2019-03-20T14:26:38.967Z,0.57
2019-03-20T14:29:11.013Z,0.70
2019-03-20T14:31:42.981Z,0.68
2019-03-20T14:34:14.989Z,0.65
2019-03-20T14:36:46.975Z,0.70
2019-03-20T14:39:18.998Z,0.70
2019-03-20T14:41:51.005Z,0.78
2019-03-20T14:44:22.972Z,0.62
2019-03-20T14:46:54.995Z,0.42
2019-03-20T14:49:26.987Z,0.60
2019-03-20T14:51:59.404Z,0.60
2019-03-20T14:54:31.390Z,0.80
2019-03-20T14:57:03.415Z,0.60
2019-03-20T14:59:35.378Z,0.60
2019-03-20T15:02:07.570Z,0.60
2019-03-20T15:04:39.786Z,0.70
2019-03-20T15:07:11.755Z,0.90
2019-03-20T15:09:43.875Z,0.60
2019-03-20T15:12:16.164Z,0.70
2019-03-20T15:14:48.202Z,0.70
2019-03-20T15:17:20.212Z,0.70
2019-03-20T15:19:52.651Z,0.78
2019-03-20T15:22:24.618Z,0.50
2019-03-20T15:24:56.635Z,0.62
2019-03-20T15:27:28.653Z,0.60
2019-03-20T15:30:00.699Z,0.57
2019-03-20T15:32:32.710Z,0.70
2019-03-20T15:35:05.820Z,0.70
2019-03-20T15:37:37.832Z,0.68
2019-03-20T15:40:11.873Z,0.57
2019-03-20T15:42:43.906Z,0.70
2019-03-20T15:45:16.394Z,0.45
2019-03-20T15:47:48.392Z,0.40
2019-03-20T15:50:20.701Z,0.70
2019-03-20T15:52:52.702Z,0.90
2019-03-20T15:55:29.693Z,0.37
2019-03-20T15:58:02.043Z,0.60
2019-03-20T16:00:34.106Z,0.70
2019-03-20T16:03:09.089Z,0.80
2019-03-20T16:05:42.199Z,0.42
2019-03-20T16:08:14.188Z,0.85
2019-03-20T16:10:46.353Z,0.70
2019-03-20T16:13:18.353Z,0.68
2019-03-20T16:15:50.385Z,0.55
2019-03-20T16:18:22.351Z,0.60
2019-03-20T16:20:54.373Z,0.70
2019-03-20T16:23:26.375Z,0.72
2019-03-20T16:25:58.350Z,0.60
2019-03-20T16:28:30.352Z,0.68
2019-03-20T16:31:02.441Z,0.60
2019-03-20T16:33:34.443Z,0.45
2019-03-20T16:36:07.443Z,0.70
2019-03-20T16:38:40.524Z,0.60
2019-03-20T16:41:16.696Z,0.80
2019-03-20T16:43:46.218Z,0.65
2019-03-20T16:46:18.317Z,0.62
2019-03-20T16:48:50.382Z,0.65
2019-03-20T16:51:22.406Z,0.65
2019-03-20T16:53:54.391Z,0.78
2019-03-20T16:56:26.470Z,0.70
2019-03-20T16:58:58.486Z,0.72
2019-03-20T17:01:30.452Z,0.80
2019-03-20T17:04:02.476Z,0.68
2019-03-20T17:06:35.683Z,0.60
2019-03-20T17:09:08.552Z,0.70
2019-03-20T17:11:40.557Z,0.65
2019-03-20T17:14:12.534Z,0.90
2019-03-20T17:16:45.605Z,0.90
2019-03-20T17:19:17.575Z,0.90
2019-03-20T17:21:49.738Z,0.80
2019-03-20T17:24:21.712Z,0.50
2019-03-20T17:26:53.781Z,0.60
2019-03-20T17:29:25.804Z,0.70
2019-03-20T17:31:57.909Z,0.90
2019-03-20T17:34:30.695Z,0.72
2019-03-20T17:37:03.860Z,0.72
2019-03-20T17:39:35.898Z,0.80
2019-03-20T17:42:07.879Z,0.85
2019-03-20T17:44:40.130Z,1.30
2019-03-20T17:47:12.351Z,1.20
2019-03-20T17:49:44.364Z,1.45
2019-03-20T17:52:16.326Z,1.80
2019-03-20T17:54:48.336Z,1.75
2019-03-20T17:57:20.345Z,1.60
2019-03-20T17:59:52.432Z,2.10
2019-03-20T18:02:24.532Z,1.10
2019-03-20T18:04:56.915Z,1.40
2019-03-20T18:07:28.999Z,1.00
2019-03-20T18:10:01.444Z,1.05
2019-03-20T18:12:33.569Z,0.95
2019-03-20T18:15:07.034Z,1.10
2019-03-20T18:17:39.053Z,1.20
2019-03-20T18:20:12.894Z,1.20
2019-03-20T18:22:45.009Z,1.17
2019-03-20T18:25:19.185Z,0.85
2019-03-20T18:27:51.200Z,1.15
2019-03-20T18:30:24.117Z,1.30
2019-03-20T18:32:56.289Z,1.30
2019-03-20T18:35:28.357Z,1.72
2019-03-20T18:38:00.359Z,1.30
2019-03-20T18:40:32.375Z,1.20
2019-03-20T18:43:05.053Z,1.15
2019-03-20T18:45:37.955Z,1.00
2019-03-20T18:48:09.927Z,1.20
2019-03-20T18:50:42.237Z,0.95
2019-03-20T18:53:14.246Z,0.80
2019-03-20T18:55:46.305Z,1.20
2019-03-20T18:58:18.256Z,1.00
2019-03-20T19:00:50.291Z,1.00
2019-03-20T19:03:22.467Z,1.15
2019-03-20T19:06:08.033Z,1.17
2019-03-20T19:08:40.107Z,1.30
2019-03-20T19:11:12.184Z,1.25
2019-03-20T19:13:44.536Z,1.37
2019-03-20T19:16:17.099Z,1.50
2019-03-20T19:18:49.050Z,2.90
2019-03-20T19:21:21.070Z,2.00
2019-03-20T19:23:53.091Z,3.22
2019-03-20T19:26:25.134Z,12.40
2019-03-20T19:28:57.171Z,8.48
2019-03-20T19:31:29.155Z,2.40
2019-03-20T19:34:01.160Z,2.10
2019-03-20T19:36:33.174Z,8.38
2019-03-20T19:39:08.840Z,33.00
2019-03-20T19:41:41.254Z,68.97
2019-03-20T19:44:13.292Z,6.15
2019-03-20T19:46:45.350Z,6.17
2019-03-20T19:49:17.379Z,21.07
2019-03-20T19:51:51.172Z,20.25
2019-03-20T19:54:23.218Z,79.72
2019-03-20T19:56:55.288Z,6.85
2019-03-20T19:59:27.321Z,28.07
2019-03-20T20:01:59.471Z,23.50
2019-03-20T20:04:31.507Z,6.90
2019-03-20T20:07:03.896Z,21.75
2019-03-20T20:09:36.116Z,14.00
2019-03-20T20:12:08.096Z,9.80
2019-03-20T20:14:40.140Z,8.98
2019-03-20T20:17:12.105Z,8.08
2019-03-20T20:19:44.529Z,7.47
2019-03-20T20:22:16.540Z,5.55
2019-03-20T20:24:48.677Z,11.25
2019-03-20T20:27:20.638Z,9.80
2019-03-20T20:29:52.713Z,18.15
2019-03-20T20:32:24.723Z,18.98
2019-03-20T20:34:56.770Z,18.95
2019-03-20T20:37:28.785Z,11.38
2019-03-20T20:40:00.854Z,11.30
2019-03-20T20:42:42.601Z,11.48
2019-03-20T20:45:06.995Z,11.03
2019-03-20T20:47:40.049Z,10.58
2019-03-20T20:50:12.476Z,10.95
2019-03-20T20:52:44.754Z,11.33
2019-03-20T20:55:16.867Z,11.45
2019-03-20T20:57:48.895Z,10.63
2019-03-20T21:00:21.489Z,11.30
2019-03-20T21:02:53.991Z,10.80
2019-03-20T21:05:25.994Z,16.57
2019-03-20T21:07:58.197Z,29.42
2019-03-20T21:10:30.203Z,21.75
2019-03-20T21:13:02.252Z,21.65
2019-03-20T21:15:46.305Z,14.55
2019-03-20T21:19:17.821Z,10.68
2019-03-20T21:22:46.515Z,6.95
2019-03-20T21:25:20.597Z,6.92
2019-03-20T21:28:58.137Z,8.70
2019-03-20T21:31:52.801Z,9.60
2019-03-20T21:35:21.554Z,10.10
2019-03-20T21:38:25.888Z,9.20
2019-03-20T21:41:56.588Z,9.33
2019-03-20T21:45:07.122Z,10.45
2019-03-20T21:47:45.856Z,10.00
2019-03-20T21:51:05.254Z,9.55
2019-03-20T21:54:18.177Z,8.38
2019-03-20T21:57:13.019Z,9.13
2019-03-20T22:00:19.902Z,9.70
2019-03-20T22:02:51.797Z,11.97
2019-03-20T22:05:48.419Z,10.75
2019-03-20T22:08:20.350Z,10.75
2019-03-20T22:11:43.668Z,11.80
2019-03-20T22:14:15.683Z,13.00
2019-03-20T22:17:29.109Z,10.63
2019-03-20T22:20:35.018Z,8.93
2019-03-20T22:23:33.466Z,9.13
2019-03-20T22:26:32.110Z,10.10
2019-03-20T22:29:24.717Z,11.93
2019-03-20T22:32:51.702Z,11.43
2019-03-20T22:35:38.258Z,13.40
2019-03-20T22:38:15.990Z,14.65
2019-03-20T22:41:23.785Z,12.70
2019-03-20T22:44:05.452Z,13.80
2019-03-20T22:47:25.556Z,10.98
2019-03-20T22:50:26.320Z,10.10
2019-03-20T22:53:29.224Z,10.20
2019-03-20T22:56:18.583Z,8.90
2019-03-20T22:58:50.479Z,9.28
2019-03-20T23:02:04.210Z,12.25
2019-03-20T23:04:46.109Z,9.80
2019-03-20T23:07:19.641Z,8.50
2019-03-20T23:09:51.682Z,8.88
2019-03-20T23:12:23.655Z,8.08
2019-03-20T23:14:55.618Z,8.08
2019-03-20T23:17:27.511Z,10.45
2019-03-20T23:20:00.776Z,10.70
2019-03-20T23:22:33.179Z,10.20
2019-03-20T23:25:05.950Z,10.72
2019-03-20T23:27:37.954Z,12.73
2019-03-20T23:30:14.045Z,13.43
2019-03-20T23:32:45.946Z,12.40
2019-03-20T23:35:17.815Z,13.28
2019-03-20T23:37:49.702Z,12.68
2019-03-20T23:40:21.561Z,12.93
2019-03-20T23:42:53.757Z,11.97
2019-03-20T23:45:26.032Z,13.43
2019-03-20T23:48:18.890Z,11.50
2019-03-20T23:50:53.039Z,11.48
2019-03-20T23:53:24.988Z,11.25
2019-03-20T23:55:56.924Z,11.12
2019-03-20T23:58:28.784Z,12.35
